Time;durP1;ratioP1;P1;durP2;ratioP2;P2;SDS_P1;SDS_P2;PMS_P1;PMS_P2;Temp;Humidity;BMP_temperature;BMP_pressure;BME280_temperature;BME280_humidity;BME280_pressure;Samples;Min_cycle;Max_cycle;Signal;HPM_P1;HPM_P2
2021/12/27 00:00:26;;;;;;;24.65;10.25;;;3.40;99.90;;;;;;4952964;29;20107;-38
2021/12/27 00:02:55;;;;;;;26.75;9.70;;;3.40;99.90;;;;;;4952180;29;20058;-35
2021/12/27 00:05:21;;;;;;;24.08;10.23;;;3.40;99.90;;;;;;4953092;29;20519;-33
2021/12/27 00:07:50;;;;;;;31.15;10.90;;;3.50;99.90;;;;;;4951735;29;20114;-36
2021/12/27 00:10:17;;;;;;;27.00;9.45;;;3.40;99.90;;;;;;4953554;29;20035;-36
2021/12/27 00:12:43;;;;;;;26.13;11.00;;;3.40;99.90;;;;;;4954775;29;20440;-36
2021/12/27 00:15:09;;;;;;;28.38;11.15;;;3.40;99.90;;;;;;4954588;29;20059;-37
2021/12/27 00:17:36;;;;;;;28.00;10.27;;;3.50;99.90;;;;;;4954238;29;20074;-41
2021/12/27 00:20:05;;;;;;;23.63;9.48;;;3.50;99.90;;;;;;4955203;29;20019;-32
2021/12/27 00:22:31;;;;;;;22.05;10.20;;;3.50;99.90;;;;;;4952587;29;20028;-38
2021/12/27 00:24:56;;;;;;;29.58;11.40;;;3.50;99.90;;;;;;4953612;29;20170;-40
2021/12/27 00:27:22;;;;;;;27.90;9.88;;;3.60;99.90;;;;;;4952974;29;20034;-37
2021/12/27 00:29:48;;;;;;;24.13;9.77;;;3.50;99.90;;;;;;4954568;29;20034;-37
2021/12/27 00:32:13;;;;;;;24.42;9.65;;;3.60;99.90;;;;;;4953437;29;20038;-38
2021/12/27 00:34:39;;;;;;;28.27;11.35;;;3.60;99.90;;;;;;4953643;29;20543;-39
2021/12/27 00:37:07;;;;;;;29.98;10.13;;;3.60;99.90;;;;;;4953153;29;20027;-35
2021/12/27 00:39:33;;;;;;;30.13;10.60;;;3.50;99.90;;;;;;4953336;29;20078;-37
2021/12/27 00:41:59;;;;;;;26.30;10.52;;;3.40;99.90;;;;;;4953355;29;20062;-32
2021/12/27 00:44:25;;;;;;;28.13;9.93;;;3.50;99.90;;;;;;4953497;29;20035;-43
2021/12/27 00:46:51;;;;;;;20.25;9.80;;;3.50;99.90;;;;;;4953504;29;20395;-36
2021/12/27 00:49:17;;;;;;;22.40;9.60;;;3.50;99.90;;;;;;4953937;29;20054;-34
2021/12/27 00:51:42;;;;;;;23.92;10.70;;;3.40;99.90;;;;;;4954420;28;20547;-33
2021/12/27 00:54:08;;;;;;;20.58;9.32;;;3.40;99.90;;;;;;4949557;29;20500;-41
2021/12/27 00:56:34;;;;;;;23.42;10.20;;;3.40;99.90;;;;;;4956506;29;20019;-31
2021/12/27 00:59:00;;;;;;;25.10;10.73;;;3.40;99.90;;;;;;4955826;29;20644;-39
2021/12/27 01:01:25;;;;;;;24.63;9.98;;;3.40;99.90;;;;;;4951429;29;20028;-36
2021/12/27 01:03:51;;;;;;;24.70;10.30;;;3.50;99.90;;;;;;4949734;29;20074;-39
2021/12/27 01:06:17;;;;;;;23.70;9.90;;;3.50;99.90;;;;;;4949197;29;20035;-38
2021/12/27 01:08:43;;;;;;;23.23;10.20;;;3.50;99.90;;;;;;4956645;28;20035;-45
2021/12/27 01:13:44;;;;;;;22.00;10.10;;;3.60;99.90;;;;;;4956047;29;20035;-36
2021/12/27 01:16:12;;;;;;;23.25;10.45;;;3.60;99.90;;;;;;4957093;29;20031;-34
2021/12/27 01:18:47;;;;;;;19.92;9.73;;;3.60;99.90;;;;;;4956912;29;20034;-37
2021/12/27 01:21:14;;;;;;;25.35;10.50;;;3.60;99.90;;;;;;4957073;29;20166;-36
2021/12/27 01:23:41;;;;;;;22.10;10.45;;;3.70;99.90;;;;;;4956390;29;20425;-31
2021/12/27 01:26:06;;;;;;;26.15;10.25;;;3.70;99.90;;;;;;4956882;29;20110;-39
2021/12/27 01:28:32;;;;;;;28.77;11.05;;;3.60;99.90;;;;;;4953602;29;20070;-32
2021/12/27 01:30:59;;;;;;;23.45;9.45;;;3.70;99.90;;;;;;4936848;29;20024;-36
2021/12/27 01:33:25;;;;;;;20.67;9.95;;;3.70;99.90;;;;;;4955727;29;20023;-35
2021/12/27 01:35:51;;;;;;;22.67;10.63;;;3.60;99.90;;;;;;4955598;29;20031;-36
2021/12/27 01:38:17;;;;;;;21.83;9.75;;;3.70;99.90;;;;;;4952668;29;20476;-36
2021/12/27 01:40:45;;;;;;;23.67;9.93;;;3.70;99.90;;;;;;4956124;29;20038;-37
2021/12/27 01:43:19;;;;;;;21.60;10.37;;;3.70;99.90;;;;;;4956404;29;20035;-44
2021/12/27 01:45:56;;;;;;;22.13;9.60;;;3.70;99.90;;;;;;4956552;29;20039;-36
2021/12/27 01:48:25;;;;;;;21.27;9.73;;;3.70;99.90;;;;;;4956298;29;20031;-38
2021/12/27 01:50:53;;;;;;;22.42;10.13;;;3.80;99.90;;;;;;4956010;29;20385;-38
2021/12/27 01:53:20;;;;;;;18.85;9.30;;;3.80;99.90;;;;;;4955749;29;20472;-41
2021/12/27 01:55:47;;;;;;;21.27;10.10;;;3.80;99.90;;;;;;4952265;29;20030;-34
2021/12/27 01:58:13;;;;;;;19.10;10.07;;;3.80;99.90;;;;;;4938138;29;20070;-35
2021/12/27 02:00:44;;;;;;;22.40;10.18;;;3.80;99.90;;;;;;4955689;29;20027;-36
2021/12/27 02:03:10;;;;;;;24.38;9.68;;;3.80;99.90;;;;;;4954767;28;20041;-38
2021/12/27 02:05:36;;;;;;;20.05;10.02;;;3.80;99.90;;;;;;4955986;29;20489;-65
2021/12/27 02:08:03;;;;;;;23.77;9.77;;;3.80;99.90;;;;;;4956452;29;20416;-38
2021/12/27 02:10:29;;;;;;;18.20;8.95;;;3.80;99.90;;;;;;4955901;29;20090;-37
2021/12/27 02:12:55;;;;;;;18.15;8.65;;;3.90;99.90;;;;;;4955896;29;20039;-36
2021/12/27 02:15:20;;;;;;;19.70;9.13;;;3.90;99.90;;;;;;4951639;28;20028;-37
2021/12/27 02:17:46;;;;;;;21.05;8.32;;;3.90;99.90;;;;;;4953475;29;20133;-36
2021/12/27 02:20:25;;;;;;;18.02;8.05;;;3.90;99.90;;;;;;4951030;29;20102;-33
2021/12/27 02:22:55;;;;;;;23.98;10.65;;;3.90;99.90;;;;;;4955306;29;20031;-38
2021/12/27 02:25:21;;;;;;;23.00;9.43;;;3.90;99.90;;;;;;4953556;29;20480;-39
2021/12/27 02:27:47;;;;;;;17.60;8.98;;;3.80;99.90;;;;;;4952746;28;20035;-39
2021/12/27 02:30:17;;;;;;;23.67;9.75;;;3.80;99.90;;;;;;4947082;29;20405;-43
2021/12/27 02:32:54;;;;;;;20.80;9.65;;;3.90;99.90;;;;;;4950215;29;20027;-39
2021/12/27 02:35:27;;;;;;;18.98;9.25;;;4.00;99.90;;;;;;4955159;29;20050;-35
2021/12/27 02:37:54;;;;;;;23.30;9.35;;;4.00;99.90;;;;;;4955618;29;20159;-34
2021/12/27 02:40:22;;;;;;;22.60;10.13;;;4.00;99.90;;;;;;4955722;29;20030;-31
2021/12/27 02:42:58;;;;;;;22.35;9.05;;;4.00;99.90;;;;;;4955648;29;20023;-34
2021/12/27 02:45:25;;;;;;;22.05;9.13;;;4.00;99.90;;;;;;4955887;29;20361;-32
2021/12/27 02:47:51;;;;;;;20.95;8.52;;;4.00;99.90;;;;;;4954289;29;20031;-34
2021/12/27 02:50:17;;;;;;;19.02;8.63;;;4.00;99.90;;;;;;4955018;29;20186;-36
2021/12/27 02:52:43;;;;;;;25.55;10.02;;;4.00;99.90;;;;;;4937799;29;20035;-40
2021/12/27 02:55:12;;;;;;;21.42;9.68;;;4.00;99.90;;;;;;4955275;29;20034;-37
2021/12/27 02:57:38;;;;;;;24.75;9.77;;;4.00;99.90;;;;;;4954972;29;20488;-34
2021/12/27 03:00:05;;;;;;;23.00;9.52;;;4.00;99.90;;;;;;4942351;29;20031;-37
2021/12/27 03:02:31;;;;;;;26.77;10.18;;;4.10;99.90;;;;;;4958157;28;20484;-41
2021/12/27 03:04:56;;;;;;;27.10;10.43;;;4.00;99.90;;;;;;4938920;29;20090;-35
2021/12/27 03:07:22;;;;;;;25.40;9.90;;;4.00;99.90;;;;;;4937593;29;20027;-44
2021/12/27 03:09:47;;;;;;;23.15;9.77;;;4.10;99.90;;;;;;4954602;29;20109;-35
2021/12/27 03:12:13;;;;;;;28.10;10.70;;;4.10;99.90;;;;;;4955212;29;20509;-33
2021/12/27 03:14:39;;;;;;;23.73;10.88;;;4.10;99.90;;;;;;4951597;28;20039;-44
2021/12/27 03:17:05;;;;;;;26.08;11.02;;;4.00;99.90;;;;;;4950149;29;20032;-38
2021/12/27 03:19:31;;;;;;;27.45;10.27;;;4.00;99.90;;;;;;4937327;29;20488;-34
2021/12/27 03:21:56;;;;;;;27.42;10.00;;;4.00;99.90;;;;;;4954045;29;20135;-40
2021/12/27 03:24:22;;;;;;;25.48;10.05;;;4.10;99.90;;;;;;4955041;28;20027;-37
2021/12/27 03:26:49;;;;;;;23.55;10.43;;;4.10;99.90;;;;;;4955192;29;20027;-35
2021/12/27 03:29:15;;;;;;;27.95;10.90;;;4.20;99.90;;;;;;4950762;29;20034;-39
2021/12/27 03:31:41;;;;;;;31.10;11.15;;;4.20;99.90;;;;;;4954247;28;20387;-35
2021/12/27 03:34:07;;;;;;;24.38;10.27;;;4.20;99.90;;;;;;4947415;29;20115;-36
2021/12/27 03:36:38;;;;;;;22.25;10.35;;;4.20;99.90;;;;;;4954077;28;20436;-36
2021/12/27 03:39:08;;;;;;;24.73;10.35;;;4.10;99.90;;;;;;4954768;29;20027;-34
2021/12/27 03:41:34;;;;;;;26.08;10.70;;;4.10;99.90;;;;;;4953345;29;20424;-38
2021/12/27 03:44:00;;;;;;;20.83;9.88;;;4.20;99.90;;;;;;4954513;29;20035;-33
2021/12/27 03:46:25;;;;;;;24.83;10.18;;;4.20;99.90;;;;;;4954501;29;20090;-37
2021/12/27 03:48:51;;;;;;;30.00;10.20;;;4.20;99.90;;;;;;4953773;29;20074;-43
2021/12/27 03:51:17;;;;;;;25.25;10.70;;;4.10;99.90;;;;;;4953804;29;20480;-33
2021/12/27 03:53:43;;;;;;;24.55;10.30;;;4.20;99.90;;;;;;4936666;29;20512;-43
2021/12/27 03:56:09;;;;;;;30.00;10.45;;;4.30;99.90;;;;;;4954627;29;20098;-34
2021/12/27 03:58:48;;;;;;;24.08;10.07;;;4.30;99.90;;;;;;4954265;29;20028;-33
2021/12/27 04:01:16;;;;;;;25.38;9.57;;;4.20;99.90;;;;;;4953807;29;20412;-37
2021/12/27 04:03:43;;;;;;;;;;;4.30;99.90;;;;;;4954755;29;20127;-31
2021/12/27 04:06:10;;;;;;;26.50;9.70;;;4.40;99.90;;;;;;4954430;29;19910;-36
2021/12/27 04:08:35;;;;;;;21.02;9.40;;;4.30;99.90;;;;;;4951245;29;20093;-40
2021/12/27 04:11:01;;;;;;;23.45;8.63;;;4.40;99.90;;;;;;4953305;29;20504;-37
2021/12/27 04:13:27;;;;;;;22.17;10.18;;;4.40;99.90;;;;;;4954224;29;20439;-39
2021/12/27 04:15:53;;;;;;;20.50;8.40;;;4.40;99.90;;;;;;4954064;29;20020;-40
2021/12/27 04:18:20;;;;;;;27.23;10.40;;;4.50;99.90;;;;;;4953940;29;20046;-42
2021/12/27 04:20:46;;;;;;;20.02;9.35;;;4.40;99.90;;;;;;4952909;29;20055;-34
2021/12/27 04:23:12;;;;;;;27.13;10.38;;;4.40;99.90;;;;;;4953925;29;20081;-43
2021/12/27 04:25:41;;;;;;;16.05;8.15;;;4.40;99.90;;;;;;4954378;28;20027;-35
2021/12/27 04:28:07;;;;;;;23.40;9.07;;;4.40;99.90;;;;;;4957282;29;20027;-38
2021/12/27 04:30:33;;;;;;;19.08;8.55;;;4.40;99.90;;;;;;4957371;29;20544;-39
2021/12/27 04:32:59;;;;;;;21.98;9.13;;;4.50;99.90;;;;;;4957718;28;20161;-38
2021/12/27 04:35:24;;;;;;;20.52;9.15;;;4.50;99.90;;;;;;4957571;29;20031;-33
2021/12/27 04:37:51;;;;;;;19.83;8.80;;;4.50;99.90;;;;;;4957292;29;20621;-35
2021/12/27 04:40:21;;;;;;;15.75;8.10;;;4.50;99.90;;;;;;4957435;29;20472;-36
2021/12/27 04:42:51;;;;;;;17.55;8.63;;;4.50;99.90;;;;;;4956976;29;20110;-38
2021/12/27 04:45:17;;;;;;;18.27;7.72;;;4.60;99.90;;;;;;4957445;29;20499;-36
2021/12/27 04:47:43;;;;;;;21.20;8.68;;;4.50;99.90;;;;;;4956957;29;20054;-37
2021/12/27 04:50:10;;;;;;;17.77;8.18;;;4.60;99.90;;;;;;4957159;28;20524;-36
2021/12/27 04:52:35;;;;;;;18.40;8.15;;;4.60;99.90;;;;;;4957041;29;20036;-31
2021/12/27 04:55:02;;;;;;;16.73;7.72;;;4.60;99.90;;;;;;4957195;29;20031;-40
2021/12/27 04:57:28;;;;;;;15.82;7.40;;;4.60;99.90;;;;;;4957054;28;20524;-39
2021/12/27 04:59:54;;;;;;;17.50;8.43;;;4.70;99.90;;;;;;4957283;29;20156;-37
2021/12/27 05:02:20;;;;;;;22.55;8.80;;;4.70;99.90;;;;;;4956952;28;20042;-35
2021/12/27 05:04:45;;;;;;;16.58;7.85;;;4.70;99.90;;;;;;4957187;28;20563;-34
2021/12/27 05:07:11;;;;;;;18.80;8.40;;;4.70;99.90;;;;;;4955860;29;20503;-35
2021/12/27 05:09:36;;;;;;;22.58;8.75;;;4.70;99.90;;;;;;4949489;29;20036;-39
2021/12/27 05:12:03;;;;;;;19.67;8.63;;;4.80;99.90;;;;;;4956891;29;20038;-37
2021/12/27 05:14:28;;;;;;;20.80;8.35;;;4.80;99.90;;;;;;4956811;29;20148;-38
2021/12/27 05:16:54;;;;;;;23.40;8.77;;;4.80;99.90;;;;;;4956661;29;20605;-36
2021/12/27 05:19:20;;;;;;;19.55;7.75;;;4.80;99.90;;;;;;4956393;29;20496;-39
2021/12/27 05:21:46;;;;;;;22.95;8.80;;;4.80;99.90;;;;;;4956179;29;20023;-36
2021/12/27 05:24:13;;;;;;;26.85;8.93;;;4.70;99.90;;;;;;4956862;29;20504;-37
2021/12/27 05:26:38;;;;;;;19.42;8.65;;;4.80;99.90;;;;;;4956870;29;20027;-34
2021/12/27 05:29:04;;;;;;;21.33;9.43;;;4.80;99.90;;;;;;4946931;29;20027;-37
2021/12/27 05:31:30;;;;;;;23.35;9.75;;;4.90;99.90;;;;;;4956942;29;20046;-46
2021/12/27 05:33:56;;;;;;;25.65;9.00;;;5.00;99.90;;;;;;4955585;29;20082;-35
2021/12/27 05:36:22;;;;;;;26.77;10.23;;;5.00;99.90;;;;;;4956078;28;20019;-38
2021/12/27 05:38:47;;;;;;;23.88;10.43;;;5.00;99.90;;;;;;4956596;29;20038;-32
2021/12/27 05:41:13;;;;;;;24.85;8.95;;;5.00;99.90;;;;;;4955432;29;20110;-41
2021/12/27 05:43:39;;;;;;;26.65;9.38;;;5.00;99.90;;;;;;4956364;29;20499;-35
2021/12/27 05:46:05;;;;;;;22.45;9.23;;;5.00;99.90;;;;;;4956213;28;20039;-33
2021/12/27 05:48:30;;;;;;;25.77;9.48;;;5.00;99.90;;;;;;4954590;29;20437;-31
2021/12/27 05:50:56;;;;;;;25.60;9.35;;;5.00;99.90;;;;;;4938014;29;20043;-36
2021/12/27 05:53:22;;;;;;;31.05;9.27;;;5.10;99.90;;;;;;4956081;29;20033;-36
2021/12/27 05:55:47;;;;;;;21.60;10.05;;;5.10;99.90;;;;;;4955824;28;20027;-35
2021/12/27 05:58:13;;;;;;;25.08;9.20;;;5.00;99.90;;;;;;4955760;28;20384;-34
2021/12/27 06:00:40;;;;;;;25.52;9.95;;;5.00;99.90;;;;;;4956180;29;20037;-37
2021/12/27 06:03:06;;;;;;;28.45;10.23;;;4.90;99.90;;;;;;4955892;29;20519;-37
2021/12/27 06:05:31;;;;;;;23.40;9.00;;;4.90;99.90;;;;;;4956570;29;20024;-35
2021/12/27 06:07:57;;;;;;;28.08;10.43;;;5.00;99.90;;;;;;4943216;29;20397;-36
2021/12/27 06:10:23;;;;;;;22.05;10.02;;;5.00;99.90;;;;;;4955991;28;20103;-35
2021/12/27 06:12:49;;;;;;;24.45;9.90;;;5.00;99.90;;;;;;4955777;29;20471;-36
2021/12/27 06:15:15;;;;;;;32.13;10.38;;;5.10;99.90;;;;;;4955681;29;20510;-35
2021/12/27 06:17:42;;;;;;;30.75;11.18;;;5.10;99.90;;;;;;4955937;29;20035;-37
2021/12/27 06:20:11;;;;;;;25.67;9.85;;;5.10;99.90;;;;;;4955486;29;20372;-32
2021/12/27 06:22:40;;;;;;;29.15;10.40;;;5.10;99.90;;;;;;4955317;29;20034;-33
2021/12/27 06:25:06;;;;;;;20.80;9.88;;;5.10;99.90;;;;;;4955509;29;20492;-39
2021/12/27 06:27:32;;;;;;;22.65;9.55;;;5.00;99.90;;;;;;4950960;29;20030;-39
2021/12/27 06:29:59;;;;;;;28.83;10.68;;;5.00;99.90;;;;;;4955211;29;20031;-41
2021/12/27 06:32:25;;;;;;;31.33;10.57;;;5.10;99.90;;;;;;4955296;29;20498;-38
2021/12/27 06:34:51;;;;;;;26.08;10.00;;;5.10;99.90;;;;;;4955190;29;20031;-32
2021/12/27 06:37:17;;;;;;;30.30;10.88;;;5.10;99.90;;;;;;4955347;29;20074;-35
2021/12/27 06:39:42;;;;;;;30.23;11.15;;;5.10;99.90;;;;;;4955144;28;20038;-33
2021/12/27 06:42:08;;;;;;;28.85;10.15;;;5.10;99.90;;;;;;4955187;29;20054;-32
2021/12/27 06:44:35;;;;;;;30.98;10.63;;;5.10;99.90;;;;;;4955388;29;20061;-36
2021/12/27 06:47:00;;;;;;;30.70;11.18;;;5.10;99.90;;;;;;4955084;29;20059;-38
2021/12/27 06:49:31;;;;;;;29.13;11.85;;;5.10;99.90;;;;;;4954699;28;20510;-34
2021/12/27 06:51:58;;;;;;;30.55;11.10;;;5.10;99.90;;;;;;4954590;29;20510;-42
2021/12/27 06:54:24;;;;;;;24.10;10.45;;;5.10;99.90;;;;;;4954734;28;20027;-41
2021/12/27 06:56:49;;;;;;;33.85;12.32;;;5.10;99.90;;;;;;4954997;29;20094;-35
2021/12/27 06:59:16;;;;;;;24.00;11.48;;;5.10;99.90;;;;;;4954663;29;20465;-39
2021/12/27 07:01:42;;;;;;;30.88;11.48;;;5.20;99.90;;;;;;4954111;29;20027;-43
2021/12/27 07:04:08;;;;;;;22.13;10.70;;;5.20;99.90;;;;;;4954445;29;20385;-34
2021/12/27 07:06:33;;;;;;;35.75;11.15;;;5.20;99.90;;;;;;4931410;29;20508;-35
2021/12/27 07:08:59;;;;;;;38.08;11.02;;;5.20;99.90;;;;;;4945372;29;20062;-34
2021/12/27 07:11:25;;;;;;;30.73;11.40;;;5.20;99.90;;;;;;4954370;29;20059;-35
2021/12/27 07:13:50;;;;;;;33.10;10.73;;;5.30;99.90;;;;;;4954884;29;20504;-37
2021/12/27 07:16:16;;;;;;;55.20;12.32;;;5.30;99.90;;;;;;4954711;29;20114;-31
2021/12/27 07:18:42;;;;;;;30.42;10.57;;;5.30;99.90;;;;;;4954264;29;20034;-33
2021/12/27 07:21:07;;;;;;;29.73;11.43;;;5.30;99.90;;;;;;4954519;28;20028;-34
2021/12/27 07:23:33;;;;;;;26.88;10.05;;;5.20;99.90;;;;;;4937120;29;20036;-36
2021/12/27 07:25:59;;;;;;;22.80;10.95;;;5.30;99.90;;;;;;4954038;29;20152;-35
2021/12/27 07:28:24;;;;;;;38.58;12.90;;;5.20;99.90;;;;;;4954481;29;20027;-35
2021/12/27 07:30:50;;;;;;;28.92;10.48;;;5.30;99.90;;;;;;4954262;29;20035;-34
2021/12/27 07:33:16;;;;;;;30.95;10.65;;;5.30;99.90;;;;;;4953714;29;20081;-36
2021/12/27 07:35:42;;;;;;;27.30;10.95;;;5.30;99.90;;;;;;4954825;29;20031;-36
2021/12/27 07:38:08;;;;;;;30.40;12.05;;;5.40;99.90;;;;;;4954838;28;20495;-43
2021/12/27 07:40:34;;;;;;;33.42;10.90;;;5.40;99.90;;;;;;4954411;29;20058;-33
2021/12/27 07:42:59;;;;;;;25.13;10.07;;;5.40;99.90;;;;;;4953574;29;20031;-37
2021/12/27 07:45:25;;;;;;;28.92;10.77;;;5.40;99.90;;;;;;4951345;29;20026;-37
2021/12/27 07:47:51;;;;;;;23.05;11.05;;;5.50;99.90;;;;;;4945803;29;20058;-35
2021/12/27 07:50:19;;;;;;;28.92;10.15;;;5.50;99.90;;;;;;4953761;29;20106;-37
2021/12/27 07:52:45;;;;;;;31.70;10.20;;;5.50;99.90;;;;;;4936660;29;20019;-34
2021/12/27 07:55:10;;;;;;;38.25;12.43;;;5.50;99.90;;;;;;4953998;29;20031;-35
2021/12/27 07:57:36;;;;;;;32.30;11.77;;;5.50;99.90;;;;;;4954464;29;20488;-39
2021/12/27 08:00:05;;;;;;;24.90;10.45;;;5.50;99.90;;;;;;4955815;28;20034;-34
2021/12/27 08:02:31;;;;;;;26.20;11.07;;;5.50;99.90;;;;;;4956186;28;20027;-34
2021/12/27 08:04:56;;;;;;;26.15;9.63;;;5.60;99.90;;;;;;4958206;29;20098;-37
2021/12/27 08:07:22;;;;;;;24.33;10.50;;;5.60;99.90;;;;;;4957944;29;20117;-36
2021/12/27 08:09:48;;;;;;;30.85;11.30;;;5.60;99.90;;;;;;4958068;29;20041;-35
2021/12/27 08:12:14;;;;;;;29.92;10.52;;;5.60;99.90;;;;;;4957962;28;20030;-38
2021/12/27 08:14:40;;;;;;;32.58;11.02;;;5.60;99.90;;;;;;4957416;28;20035;-41
2021/12/27 08:17:06;;;;;;;26.98;10.77;;;5.60;99.90;;;;;;4949085;28;20074;-36
2021/12/27 08:19:33;;;;;;;28.30;10.38;;;5.60;99.90;;;;;;4958040;29;20026;-37
2021/12/27 08:21:59;;;;;;;29.35;10.45;;;5.60;99.90;;;;;;4951570;29;20502;-33
2021/12/27 08:24:24;;;;;;;32.03;11.35;;;5.60;99.90;;;;;;4948647;29;20020;-35
2021/12/27 08:26:50;;;;;;;34.97;10.23;;;5.60;99.90;;;;;;4956982;29;20035;-35
2021/12/27 08:29:16;;;;;;;27.02;10.32;;;5.70;99.90;;;;;;4957655;29;20031;-50
2021/12/27 08:31:42;;;;;;;30.83;10.73;;;5.80;99.90;;;;;;4957242;28;20057;-36
2021/12/27 08:34:08;;;;;;;30.25;11.18;;;5.80;99.90;;;;;;4957412;29;20074;-34
2021/12/27 08:36:33;;;;;;;26.42;10.77;;;5.80;99.90;;;;;;4957624;29;20095;-36
2021/12/27 08:38:59;;;;;;;28.63;11.27;;;5.80;99.90;;;;;;4956978;28;20102;-35
2021/12/27 08:41:27;;;;;;;28.08;10.73;;;6.00;99.90;;;;;;4957502;29;20026;-36
2021/12/27 08:43:58;;;;;;;24.85;10.73;;;6.00;99.90;;;;;;4956087;29;20509;-37
2021/12/27 08:46:24;;;;;;;41.72;10.82;;;6.00;99.90;;;;;;4956950;29;20027;-34
2021/12/27 08:48:49;;;;;;;31.25;12.00;;;6.00;99.90;;;;;;4957358;28;20027;-37
2021/12/27 08:51:15;;;;;;;32.50;11.20;;;6.00;99.90;;;;;;4957211;29;20051;-42
2021/12/27 08:53:41;;;;;;;26.58;11.20;;;6.10;99.90;;;;;;4956542;29;20027;-36
2021/12/27 08:56:07;;;;;;;26.10;10.35;;;6.00;99.90;;;;;;4957470;29;20033;-37
2021/12/27 08:58:32;;;;;;;31.38;10.60;;;6.00;99.90;;;;;;4957224;29;20019;-38
2021/12/27 09:00:58;;;;;;;31.73;11.70;;;6.10;99.90;;;;;;4957265;29;20030;-35
2021/12/27 09:03:24;;;;;;;28.00;11.02;;;6.10;99.90;;;;;;4956574;29;20036;-36
2021/12/27 09:05:49;;;;;;;27.10;12.05;;;6.10;99.90;;;;;;4957201;28;20110;-43
2021/12/27 09:08:15;;;;;;;33.22;10.88;;;6.10;99.90;;;;;;4956985;29;20515;-35
2021/12/27 09:10:41;;;;;;;34.25;11.88;;;6.20;99.90;;;;;;4957026;29;20027;-39
2021/12/27 09:13:07;;;;;;;26.85;11.68;;;6.20;99.90;;;;;;4956092;28;20504;-44
2021/12/27 09:15:33;;;;;;;28.95;11.20;;;6.10;99.90;;;;;;4956238;29;20123;-38
2021/12/27 09:17:58;;;;;;;34.00;11.85;;;6.10;99.90;;;;;;4956501;29;20029;-38
2021/12/27 09:20:26;;;;;;;28.02;11.57;;;6.20;99.90;;;;;;4939813;29;20023;-31
2021/12/27 09:22:52;;;;;;;30.40;12.17;;;6.30;99.90;;;;;;4956617;29;20031;-36
2021/12/27 09:25:17;;;;;;;31.33;11.65;;;6.30;99.90;;;;;;4956842;29;20032;-35
2021/12/27 09:27:43;;;;;;;31.23;10.70;;;6.30;99.90;;;;;;4956463;29;20435;-35
2021/12/27 09:30:10;;;;;;;34.00;12.10;;;6.40;99.90;;;;;;4956699;28;20069;-39
2021/12/27 09:32:35;;;;;;;20.92;10.95;;;6.40;99.90;;;;;;4956136;29;20349;-36
2021/12/27 09:35:02;;;;;;;39.80;11.63;;;6.40;99.90;;;;;;4956268;29;20023;-38
2021/12/27 09:37:27;;;;;;;28.38;12.07;;;6.50;99.90;;;;;;4956550;29;20016;-38
2021/12/27 09:39:53;;;;;;;28.83;11.77;;;6.60;99.90;;;;;;4955064;28;20035;-34
2021/12/27 09:42:23;;;;;;;28.73;11.52;;;6.60;99.90;;;;;;4956338;28;20028;-37
2021/12/27 09:44:50;;;;;;;31.70;12.88;;;6.70;99.90;;;;;;4956374;29;20034;-43
2021/12/27 09:47:16;;;;;;;36.28;12.25;;;6.60;99.90;;;;;;4943346;29;20034;-40
2021/12/27 09:49:43;;;;;;;34.53;10.75;;;6.70;99.90;;;;;;4956314;29;20543;-33
2021/12/27 09:52:09;;;;;;;31.20;12.65;;;6.70;99.90;;;;;;4956548;29;20515;-37
2021/12/27 09:54:35;;;;;;;34.53;12.02;;;6.70;99.90;;;;;;4956114;29;20439;-36
2021/12/27 09:57:01;;;;;;;33.38;11.85;;;6.70;99.90;;;;;;4956227;29;20028;-37
2021/12/27 09:59:27;;;;;;;33.22;11.60;;;6.60;99.90;;;;;;4956065;29;20020;-42
2021/12/27 10:01:53;;;;;;;29.30;11.80;;;6.60;99.90;;;;;;4956099;29;20025;-38
2021/12/27 10:04:20;;;;;;;26.63;10.73;;;6.60;99.90;;;;;;4956057;29;20034;-39
2021/12/27 10:06:47;;;;;;;26.83;10.70;;;6.60;99.90;;;;;;4952915;29;20090;-34
2021/12/27 10:09:13;;;;;;;29.10;11.70;;;6.60;99.90;;;;;;4955544;29;20483;-38
2021/12/27 10:11:42;;;;;;;28.48;12.18;;;6.80;99.90;;;;;;4955338;29;20035;-35
2021/12/27 10:14:14;;;;;;;26.83;10.32;;;6.80;99.90;;;;;;4954895;29;20027;-36
2021/12/27 10:16:45;;;;;;;31.75;10.27;;;6.90;99.90;;;;;;4954535;29;20035;-36
2021/12/27 10:19:15;;;;;;;23.95;10.52;;;6.90;99.90;;;;;;4955350;29;20030;-39
2021/12/27 10:21:42;;;;;;;29.55;11.00;;;6.90;99.90;;;;;;4955018;29;20024;-38
2021/12/27 10:24:14;;;;;;;26.40;10.30;;;6.90;99.90;;;;;;4954851;28;20476;-37
2021/12/27 10:26:42;;;;;;;27.80;10.27;;;7.00;99.90;;;;;;4955300;29;20510;-35
2021/12/27 10:29:20;;;;;;;21.10;10.05;;;7.00;99.90;;;;;;4955298;29;20039;-34
2021/12/27 10:32:05;;;;;;;;;;;7.10;99.90;;;;;;4955660;29;20488;-36
2021/12/27 10:34:35;;;;;;;25.38;9.48;;;7.10;99.90;;;;;;4953876;29;20399;-39
2021/12/27 10:37:25;;;;;;;24.20;9.77;;;7.10;99.90;;;;;;4954641;29;20488;-34
2021/12/27 10:39:58;;;;;;;24.20;9.88;;;7.20;99.90;;;;;;4951480;29;20082;-38
2021/12/27 10:42:28;;;;;;;26.90;9.35;;;7.10;99.90;;;;;;4954519;29;20551;-34
2021/12/27 10:45:00;;;;;;;26.85;10.02;;;7.10;99.90;;;;;;4937276;29;20085;-41
2021/12/27 10:47:35;;;;;;;20.67;9.20;;;7.10;99.90;;;;;;4950279;29;20102;-36
2021/12/27 10:50:04;;;;;;;23.20;9.55;;;7.10;99.90;;;;;;4954420;29;20047;-39
2021/12/27 10:53:04;;;;;;;24.63;10.18;;;7.20;99.90;;;;;;4954476;29;20124;-37
2021/12/27 10:55:42;;;;;;;22.77;10.05;;;7.10;99.90;;;;;;4936276;29;20059;-36
2021/12/27 10:58:26;;;;;;;21.20;9.38;;;7.20;99.90;;;;;;4953988;29;20023;-35
2021/12/27 11:01:12;;;;;;;32.08;9.93;;;7.20;99.90;;;;;;4954637;29;20027;-39
2021/12/27 11:03:41;;;;;;;27.58;11.13;;;7.20;99.90;;;;;;4945075;29;20480;-38
2021/12/27 11:06:09;;;;;;;25.17;11.20;;;7.30;99.90;;;;;;4951888;29;20166;-40
2021/12/27 11:08:36;;;;;;;27.65;11.40;;;7.30;99.90;;;;;;4954684;29;20035;-35
2021/12/27 11:11:03;;;;;;;25.63;10.82;;;7.40;99.90;;;;;;4954931;28;20491;-35
2021/12/27 11:13:31;;;;;;;29.40;12.03;;;7.30;99.90;;;;;;4954341;29;20389;-35
2021/12/27 11:15:57;;;;;;;25.15;10.85;;;7.30;99.90;;;;;;4954474;29;20042;-35
2021/12/27 11:18:23;;;;;;;23.20;9.95;;;7.40;99.90;;;;;;4953320;29;20503;-32
2021/12/27 11:20:55;;;;;;;23.13;10.32;;;7.50;99.90;;;;;;4948222;29;20034;-38
2021/12/27 11:23:24;;;;;;;23.20;9.57;;;7.40;99.90;;;;;;4950944;29;20101;-38
2021/12/27 11:26:02;;;;;;;25.90;10.05;;;7.40;99.90;;;;;;4953984;29;20539;-36
2021/12/27 11:28:28;;;;;;;21.10;10.07;;;7.30;99.90;;;;;;4955229;29;20543;-36
2021/12/27 11:30:55;;;;;;;21.65;10.65;;;7.30;99.90;;;;;;4955158;29;20070;-38
2021/12/27 11:33:22;;;;;;;20.50;10.32;;;7.40;99.90;;;;;;4954915;29;20135;-36
2021/12/27 11:35:59;;;;;;;25.42;10.75;;;7.50;99.90;;;;;;4951745;28;20563;-37
2021/12/27 11:38:29;;;;;;;15.20;7.30;;;7.60;99.90;;;;;;4952784;29;20054;-32
2021/12/27 11:40:55;;;;;;;22.15;10.07;;;7.60;99.90;;;;;;4953739;29;20384;-42
2021/12/27 11:43:20;;;;;;;21.27;10.48;;;7.60;99.90;;;;;;4953951;29;20027;-39
2021/12/27 11:45:57;;;;;;;68.10;30.30;;;7.60;99.90;;;;;;4954153;29;20035;-39
2021/12/27 11:48:26;;;;;;;31.80;17.23;;;7.50;99.90;;;;;;4953704;29;20502;-41
2021/12/27 11:50:58;;;;;;;23.55;11.85;;;7.60;99.90;;;;;;4953601;29;20393;-37
2021/12/27 11:53:36;;;;;;;20.85;10.30;;;7.60;99.90;;;;;;4953058;29;20058;-35
2021/12/27 11:56:08;;;;;;;28.48;12.63;;;7.70;99.90;;;;;;4953234;29;20487;-38
2021/12/27 11:58:35;;;;;;;16.80;9.35;;;7.70;99.90;;;;;;4951364;29;20058;-35
2021/12/27 12:01:19;;;;;;;18.20;9.02;;;7.70;99.90;;;;;;4954241;29;20514;-36
2021/12/27 12:03:45;;;;;;;20.35;10.52;;;7.60;99.90;;;;;;4952026;29;20027;-37
2021/12/27 12:06:38;;;;;;;18.90;10.88;;;7.60;99.90;;;;;;4953201;29;20510;-40
2021/12/27 12:09:19;;;;;;;23.45;13.65;;;7.60;99.90;;;;;;4944764;29;20533;-39
2021/12/27 12:11:46;;;;;;;14.88;9.32;;;7.70;99.90;;;;;;4946682;29;20543;-33
2021/12/27 12:14:34;;;;;;;17.65;9.18;;;7.70;99.90;;;;;;4947647;29;20058;-36
2021/12/27 12:17:03;;;;;;;14.68;8.18;;;7.80;99.90;;;;;;4951505;29;20027;-42
2021/12/27 12:19:40;;;;;;;14.15;7.97;;;7.80;99.90;;;;;;4948788;29;20034;-31
2021/12/27 12:22:27;;;;;;;17.17;8.98;;;7.80;99.90;;;;;;4950383;29;20480;-37
2021/12/27 12:25:16;;;;;;;10.45;5.53;;;7.80;99.90;;;;;;4952077;29;20097;-34
2021/12/27 12:28:02;;;;;;;11.80;7.60;;;7.90;99.90;;;;;;4953973;29;20042;-40
2021/12/27 12:30:39;;;;;;;15.13;7.80;;;7.90;99.90;;;;;;4946584;29;20049;-41
2021/12/27 12:33:11;;;;;;;14.32;7.35;;;7.90;99.90;;;;;;4937131;29;20075;-39
2021/12/27 12:35:39;;;;;;;12.20;7.22;;;8.00;99.90;;;;;;4952575;29;20488;-36
2021/12/27 12:38:35;;;;;;;18.63;7.18;;;7.90;99.90;;;;;;4952821;29;20027;-40
2021/12/27 12:41:20;;;;;;;14.18;6.60;;;8.00;99.90;;;;;;4947567;29;20035;-37
2021/12/27 12:43:55;;;;;;;11.77;7.03;;;8.00;99.90;;;;;;4952602;29;20027;-37
2021/12/27 12:46:25;;;;;;;13.05;6.40;;;8.00;99.90;;;;;;4933286;29;20511;-34